Rock Creek, MN (55067)

8:23 AM CST on December 29, 2014 (GMT -0600)
Rush City Regional | Change Station
CLOSE
Current Station
Airport
Location: Rush City,
Elevation: 922 ft
Nearby Weather Stations

Elev 922 ft 45.70 °N, 92.95 °W | Updated 8 minutes ago

Partly Cloudy
Partly Cloudy
-2 °F
Feels Like -10 °F
N
4
Wind Variable Wind from NNW

Today
High -- | Low -- °F
--% Chance of Precip.
Yesterday
High -- | Low -- °F
Precip. -- in
7:52 AM 4:35 PM
First Quarter, 59% visible
Pressure 30.53 in
Visibility 10.0 miles
Clouds Scattered Clouds 10000 ft
Windchill -10 °F
Dew Point -8 °F
Humidity 78%
Rainfall 0.00 in
Snow Depth Not available.
UV 0 out of 12
Pollen .10 out of 12
Air Quality Not available.
Flu Activity Not available.
METAR KROS 291415Z AUTO 34003KT 10SM SCT100 M19/M22 A3053 RMK AO2 T11901220

More Conditions Fewer Conditions

Pressure 30.53 in
Visibility 10.0 miles
Clouds Scattered Clouds 10000 ft
Windchill -10 °F
Dew Point -8 °F
Humidity 78%
Rainfall 0.00 in
Snow Depth Not available.
UV 0 out of 12
Pollen .10 out of 12
Air Quality Not available.
Flu Activity Not available.
METAR KROS 291415Z AUTO 34003KT 10SM SCT100 M19/M22 A3053 RMK AO2 T11901220

More Conditions Fewer Conditions

10-Day Weather Forecast

Almanac

Astronomy

Dec. 29, 2014 Rise Set
Actual Time
Civil Twilight
Nautical Twilight
Astronomical Twilight
Moon
Length of Visible Light
Length of Day
Tomorrow will be .
, % of the Moon is Illuminated

Today's Extremes

State Highs State Lows

Community

WunderPhotos

Upload Photos

1,781,587 photos uploaded!

WunderBlogs® & News

Nearby

Air Quality

  Air Quality AQ Index Pollutant
Not available.

Snow Depth

Station Depth Elevation

Earthquake Activity

City Distance Mag. Time & Date
Minimum magnitude displayed is 2.5.

Coastal Water Temperatures

Place Temperature

Nearby Weather Stations